createdAt,value
2023-08-15T00:00:34.063Z,9.80
2023-08-15T00:04:13.343Z,15.50
2023-08-15T00:07:49.718Z,11.60
2023-08-15T00:11:27.037Z,9.70
2023-08-15T00:15:05.530Z,9.70
2023-08-15T00:18:43.676Z,10.40
2023-08-15T00:22:20.109Z,9.70
2023-08-15T00:25:58.053Z,11.30
2023-08-15T00:29:41.396Z,12.40
2023-08-15T00:33:31.973Z,9.10
2023-08-15T00:36:57.287Z,9.60
2023-08-15T00:40:40.676Z,12.50
2023-08-15T00:44:12.537Z,10.70
2023-08-15T00:47:50.804Z,12.50
2023-08-15T00:51:28.369Z,15.00
2023-08-15T00:55:09.382Z,8.70
2023-08-15T00:58:43.539Z,8.50
2023-08-15T01:02:21.083Z,11.80
2023-08-15T01:05:58.674Z,10.30
2023-08-15T01:09:38.465Z,12.50
2023-08-15T01:13:37.625Z,11.20
2023-08-15T01:17:06.552Z,14.10
2023-08-15T01:20:44.711Z,12.10
2023-08-15T01:24:21.728Z,12.60
2023-08-15T01:27:57.736Z,9.40
2023-08-15T01:31:41.367Z,12.30
2023-08-15T01:35:25.821Z,11.30
2023-08-15T01:39:05.066Z,11.40
2023-08-15T01:42:34.254Z,11.80
2023-08-15T01:46:09.879Z,10.20
2023-08-15T01:49:47.275Z,10.90
2023-08-15T01:53:24.950Z,14.30
2023-08-15T01:57:02.730Z,19.50
2023-08-15T02:00:48.166Z,20.30
2023-08-15T02:04:21.038Z,14.70
2023-08-15T02:07:55.884Z,13.20
2023-08-15T02:11:33.578Z,10.10
2023-08-15T02:15:11.125Z,13.20
2023-08-15T02:18:49.202Z,11.50
2023-08-15T02:22:26.181Z,10.20
2023-08-15T02:26:04.212Z,9.90
2023-08-15T02:29:41.717Z,14.70
2023-08-15T02:33:19.823Z,11.90
2023-08-15T02:36:57.130Z,12.10
2023-08-15T02:40:35.139Z,9.60
2023-08-15T02:44:14.086Z,14.10
2023-08-15T02:47:51.376Z,11.80
2023-08-15T02:51:29.755Z,11.70
2023-08-15T02:55:06.634Z,12.30
2023-08-15T02:58:43.210Z,16.60
2023-08-15T03:02:20.832Z,10.10
2023-08-15T03:06:02.530Z,11.10
2023-08-15T03:09:36.066Z,11.90
2023-08-15T03:13:13.860Z,13.50
2023-08-15T03:16:51.541Z,11.10
2023-08-15T03:20:30.836Z,9.80
2023-08-15T03:24:07.864Z,18.20
2023-08-15T03:27:44.467Z,12.80
2023-08-15T03:31:22.517Z,12.40
2023-08-15T03:35:21.590Z,11.80
2023-08-15T03:38:47.847Z,11.70
2023-08-15T03:42:27.076Z,12.30
2023-08-15T03:46:04.753Z,13.30
2023-08-15T03:49:40.934Z,15.20
2023-08-15T03:53:37.299Z,14.20
2023-08-15T03:57:02.794Z,18.20
2023-08-15T04:00:40.637Z,19.90
2023-08-15T04:04:18.109Z,16.60
2023-08-15T04:07:56.069Z,13.60
2023-08-15T04:11:36.406Z,13.00
2023-08-15T04:15:11.874Z,15.40
2023-08-15T04:18:48.861Z,16.70
2023-08-15T04:22:26.690Z,16.40
2023-08-15T04:26:04.504Z,15.90
2023-08-15T04:29:41.817Z,13.00
2023-08-15T04:33:38.396Z,21.80
2023-08-15T04:37:03.057Z,12.50
2023-08-15T04:40:44.973Z,15.70
2023-08-15T04:44:18.418Z,18.50
2023-08-15T04:47:56.323Z,12.70
2023-08-15T04:51:33.817Z,11.70
2023-08-15T04:55:30.388Z,12.60
2023-08-15T04:58:55.186Z,14.50
2023-08-15T05:02:32.843Z,14.00
2023-08-15T05:06:12.419Z,13.80
2023-08-15T05:09:48.658Z,12.50
2023-08-15T05:13:26.010Z,16.10
2023-08-15T05:17:03.932Z,10.60
2023-08-15T05:21:00.232Z,16.80
2023-08-15T05:24:26.461Z,15.50
2023-08-15T05:28:22.785Z,11.20
2023-08-15T05:31:48.316Z,9.90
2023-08-15T05:35:27.212Z,16.10
2023-08-15T05:39:22.802Z,10.20
2023-08-15T05:43:09.194Z,15.30
2023-08-15T05:46:55.010Z,10.50
2023-08-15T05:50:40.762Z,12.00
2023-08-15T05:54:08.793Z,10.30
2023-08-15T05:57:45.235Z,12.20
2023-08-15T06:01:24.052Z,11.00
2023-08-15T06:05:00.657Z,10.30
2023-08-15T06:08:38.328Z,10.80
2023-08-15T06:12:15.967Z,14.60
2023-08-15T06:15:53.748Z,10.20
2023-08-15T06:19:31.501Z,12.60
2023-08-15T06:23:09.032Z,11.20
2023-08-15T06:26:46.737Z,12.50
2023-08-15T06:30:24.514Z,9.20
2023-08-15T06:34:06.246Z,9.70
2023-08-15T06:37:39.839Z,6.90
2023-08-15T06:41:18.061Z,10.50
2023-08-15T06:45:12.533Z,9.10
2023-08-15T06:48:58.003Z,12.20
2023-08-15T06:52:24.549Z,6.70
2023-08-15T06:56:02.715Z,7.10
2023-08-15T06:59:58.217Z,6.90
2023-08-15T07:03:26.222Z,10.10
2023-08-15T07:07:23.558Z,7.90
2023-08-15T07:11:09.142Z,9.50
2023-08-15T07:14:53.511Z,6.40
2023-08-15T07:18:20.779Z,8.20
2023-08-15T07:21:56.693Z,10.00
2023-08-15T07:25:34.165Z,11.90
2023-08-15T07:29:12.868Z,8.40
2023-08-15T07:32:49.746Z,8.00
2023-08-15T07:36:27.283Z,7.80
2023-08-15T07:40:11.076Z,8.80
2023-08-15T07:43:42.571Z,8.30
2023-08-15T07:47:23.690Z,6.30
2023-08-15T07:50:58.187Z,6.60
2023-08-15T07:54:37.542Z,5.10
2023-08-15T07:58:13.796Z,7.40
2023-08-15T08:01:53.533Z,8.70
2023-08-15T08:05:32.847Z,11.10
2023-08-15T08:09:07.386Z,4.70
2023-08-15T08:13:05.035Z,7.90
2023-08-15T08:16:32.799Z,5.30
2023-08-15T08:20:14.018Z,9.60
2023-08-15T08:23:45.384Z,3.80
2023-08-15T08:27:45.955Z,5.60
2023-08-15T08:31:11.192Z,3.80
2023-08-15T08:34:49.006Z,5.40
2023-08-15T08:38:28.556Z,5.50
2023-08-15T08:42:04.970Z,4.10
2023-08-15T08:45:49.400Z,6.40
2023-08-15T08:49:21.848Z,5.80
2023-08-15T08:52:57.603Z,5.40
2023-08-15T08:56:35.314Z,5.50
2023-08-15T09:00:16.081Z,6.20
2023-08-15T09:03:50.490Z,5.50
2023-08-15T09:07:28.020Z,4.70
2023-08-15T09:11:06.350Z,16.40
2023-08-15T09:14:43.430Z,12.60
2023-08-15T09:18:25.729Z,4.40
2023-08-15T09:21:59.196Z,8.80
2023-08-15T09:25:56.418Z,9.60
2023-08-15T09:29:23.038Z,5.70
2023-08-15T09:33:02.255Z,8.30
2023-08-15T09:36:36.590Z,5.20
2023-08-15T09:40:26.828Z,5.90
2023-08-15T09:43:54.974Z,10.50
2023-08-15T09:47:31.078Z,7.70
2023-08-15T09:51:28.259Z,5.50
2023-08-15T09:54:53.108Z,7.20
2023-08-15T09:58:30.864Z,5.10
2023-08-15T10:02:23.645Z,4.30
2023-08-15T10:05:56.129Z,4.80
2023-08-15T10:09:30.815Z,5.10
2023-08-15T10:13:08.936Z,5.60
2023-08-15T10:16:43.988Z,5.90
2023-08-15T10:20:43.414Z,4.40
2023-08-15T10:24:10.032Z,4.80
2023-08-15T10:27:55.317Z,5.50
2023-08-15T10:31:37.368Z,4.60
2023-08-15T10:35:32.110Z,4.90
2023-08-15T10:39:18.526Z,8.20
2023-08-15T10:43:06.056Z,2.80
2023-08-15T10:46:51.993Z,3.40
2023-08-15T10:50:17.408Z,2.60
2023-08-15T10:54:15.756Z,3.00
2023-08-15T10:57:42.412Z,2.70
2023-08-15T11:01:21.298Z,4.80
2023-08-15T11:04:57.406Z,5.90
2023-08-15T11:08:56.127Z,3.80
2023-08-15T11:12:21.007Z,4.60
2023-08-15T11:16:00.100Z,4.30
2023-08-15T11:19:36.439Z,5.10
2023-08-15T11:23:13.901Z,4.30
2023-08-15T11:26:52.244Z,4.20
2023-08-15T11:30:30.083Z,3.10
2023-08-15T11:34:07.802Z,8.80
2023-08-15T11:37:44.993Z,6.00
2023-08-15T11:41:22.959Z,7.60
2023-08-15T11:45:10.511Z,3.90
2023-08-15T11:48:37.932Z,5.00
2023-08-15T11:52:18.349Z,5.70
2023-08-15T11:56:12.167Z,4.30
2023-08-15T11:59:55.844Z,3.80
2023-08-15T12:03:20.894Z,3.40
2023-08-15T12:06:59.165Z,4.10
2023-08-15T12:10:36.332Z,4.30
2023-08-15T12:14:21.508Z,4.90
2023-08-15T12:17:52.090Z,5.30
2023-08-15T12:21:28.991Z,2.80
2023-08-15T12:25:09.110Z,5.50
2023-08-15T12:28:45.477Z,3.10
2023-08-15T12:32:22.940Z,4.50
2023-08-15T12:35:59.823Z,4.60
2023-08-15T12:39:37.520Z,5.10
2023-08-15T12:43:15.139Z,5.50
2023-08-15T12:46:52.973Z,3.70
2023-08-15T12:50:49.751Z,7.20
2023-08-15T12:54:34.638Z,3.20
2023-08-15T12:58:01.290Z,5.40
2023-08-15T13:01:41.309Z,5.60
2023-08-15T13:05:33.748Z,3.90
2023-08-15T13:08:58.652Z,6.40
2023-08-15T13:12:55.704Z,4.20
2023-08-15T13:16:20.436Z,4.10
2023-08-15T13:19:58.061Z,4.00
2023-08-15T13:23:35.750Z,3.20
2023-08-15T13:27:32.131Z,4.80
2023-08-15T13:30:58.573Z,5.50
2023-08-15T13:34:34.972Z,3.10
2023-08-15T13:38:14.198Z,4.30
2023-08-15T13:41:50.574Z,3.90
2023-08-15T13:45:28.190Z,3.10
2023-08-15T13:49:06.425Z,3.80
2023-08-15T13:52:43.367Z,5.70
2023-08-15T13:56:21.012Z,4.50
2023-08-15T13:59:58.819Z,4.60
2023-08-15T14:03:39.716Z,4.60
2023-08-15T14:07:14.171Z,28.70
2023-08-15T14:10:52.190Z,3.60
2023-08-15T14:14:29.527Z,4.40
2023-08-15T14:18:08.424Z,4.00
2023-08-15T14:21:45.167Z,3.20
2023-08-15T14:25:22.582Z,3.60
2023-08-15T14:29:00.193Z,3.40
2023-08-15T14:32:38.039Z,4.50
2023-08-15T14:36:15.494Z,4.20
2023-08-15T14:40:12.206Z,4.30
2023-08-15T14:43:55.839Z,4.50
2023-08-15T14:47:29.449Z,4.70
2023-08-15T14:51:17.122Z,3.40
2023-08-15T14:54:42.016Z,6.40
2023-08-15T14:58:19.856Z,8.90
2023-08-15T15:01:59.100Z,2.50
2023-08-15T15:05:35.098Z,2.70
2023-08-15T15:09:12.933Z,5.10
2023-08-15T15:12:50.580Z,4.50
2023-08-15T15:16:28.330Z,8.00
2023-08-15T15:20:07.973Z,5.70
2023-08-15T15:24:05.536Z,4.40
2023-08-15T15:27:31.347Z,4.60
2023-08-15T15:31:09.207Z,2.90
2023-08-15T15:34:47.234Z,4.60
2023-08-15T15:38:24.452Z,9.00
2023-08-15T15:42:02.288Z,4.70
2023-08-15T15:45:40.396Z,4.10
2023-08-15T15:49:18.568Z,4.20
2023-08-15T15:52:55.451Z,3.80
2023-08-15T15:56:51.774Z,5.70
2023-08-15T16:00:22.447Z,5.80
2023-08-15T16:03:54.958Z,3.90
2023-08-15T16:07:32.655Z,4.70
2023-08-15T16:11:10.730Z,4.80
2023-08-15T16:14:47.197Z,4.40
2023-08-15T16:18:25.503Z,3.00
2023-08-15T16:22:06.578Z,8.00
2023-08-15T16:25:40.330Z,4.70
2023-08-15T16:29:17.904Z,7.60
2023-08-15T16:33:15.090Z,5.60
2023-08-15T16:36:41.231Z,5.10
2023-08-15T16:40:19.006Z,5.10
2023-08-15T16:43:57.612Z,5.50
2023-08-15T16:47:37.634Z,3.80
2023-08-15T16:51:12.019Z,5.10
2023-08-15T16:55:08.885Z,4.50
2023-08-15T16:58:33.953Z,8.30
2023-08-15T17:02:30.542Z,3.80
2023-08-15T17:06:02.268Z,4.90
2023-08-15T17:09:35.680Z,4.70
2023-08-15T17:13:12.364Z,5.20
2023-08-15T17:16:48.998Z,6.20
2023-08-15T17:20:27.296Z,8.20
2023-08-15T17:24:05.000Z,6.50
2023-08-15T17:27:41.879Z,3.90
2023-08-15T17:31:20.293Z,5.00
2023-08-15T17:34:57.334Z,6.70
2023-08-15T17:38:36.708Z,4.80
2023-08-15T17:42:12.810Z,4.70
2023-08-15T17:45:51.189Z,3.70
2023-08-15T17:49:28.200Z,3.90
2023-08-15T17:53:05.989Z,6.30
2023-08-15T17:56:43.506Z,5.80
2023-08-15T18:00:21.486Z,9.80
2023-08-15T18:04:05.272Z,4.70
2023-08-15T18:07:36.842Z,4.50
2023-08-15T18:11:17.435Z,6.60
2023-08-15T18:14:51.919Z,5.90
2023-08-15T18:18:33.644Z,9.60
2023-08-15T18:22:09.078Z,5.00
2023-08-15T18:25:44.848Z,5.10
2023-08-15T18:29:23.606Z,9.80
2023-08-15T18:33:03.497Z,3.80
2023-08-15T18:36:57.362Z,5.40
2023-08-15T18:40:23.634Z,6.30
2023-08-15T18:44:01.329Z,5.30
2023-08-15T18:47:38.507Z,5.70
2023-08-15T18:51:17.306Z,8.80
2023-08-15T18:54:53.184Z,3.70
2023-08-15T18:58:30.771Z,8.00
2023-08-15T19:02:09.544Z,6.00
2023-08-15T19:05:47.244Z,5.00
2023-08-15T19:09:23.929Z,8.40
2023-08-15T19:13:01.674Z,4.20
2023-08-15T19:16:39.190Z,6.40
2023-08-15T19:20:19.059Z,5.90
2023-08-15T19:23:55.563Z,5.60
2023-08-15T19:27:33.461Z,5.90
2023-08-15T19:31:12.744Z,10.60
2023-08-15T19:34:49.137Z,8.50
2023-08-15T19:38:25.150Z,7.10
2023-08-15T19:42:03.189Z,7.50
2023-08-15T19:45:40.670Z,4.90
2023-08-15T19:49:18.751Z,4.90
2023-08-15T19:52:56.180Z,5.10
2023-08-15T19:56:33.732Z,7.80
2023-08-15T20:00:11.838Z,6.00
2023-08-15T20:03:49.114Z,4.80
2023-08-15T20:07:26.830Z,5.30
2023-08-15T20:11:05.461Z,12.40
2023-08-15T20:14:43.212Z,5.10
2023-08-15T20:18:24.589Z,7.60
2023-08-15T20:21:59.443Z,15.90
2023-08-15T20:25:35.219Z,6.30
2023-08-15T20:29:12.834Z,8.60
2023-08-15T20:32:50.594Z,5.40
2023-08-15T20:36:28.296Z,5.60
2023-08-15T20:40:06.286Z,8.50
2023-08-15T20:44:02.496Z,7.30
2023-08-15T20:47:27.461Z,6.80
2023-08-15T20:51:05.174Z,8.20
2023-08-15T20:54:44.289Z,6.60
2023-08-15T20:58:20.353Z,7.90
2023-08-15T21:02:17.081Z,8.00
2023-08-15T21:06:01.008Z,5.00
2023-08-15T21:09:45.045Z,7.00
2023-08-15T21:13:11.190Z,9.60
2023-08-15T21:16:48.805Z,6.30
2023-08-15T21:20:28.396Z,10.00
2023-08-15T21:24:04.596Z,6.50
2023-08-15T21:28:00.618Z,6.30
2023-08-15T21:31:27.046Z,9.30
2023-08-15T21:35:02.932Z,5.40
2023-08-15T21:38:41.170Z,7.10
2023-08-15T21:42:41.322Z,5.50
2023-08-15T21:46:25.224Z,6.10
2023-08-15T21:49:53.514Z,8.00
2023-08-15T21:53:48.792Z,9.00
2023-08-15T21:57:15.319Z,5.50
2023-08-15T22:00:52.991Z,8.10
2023-08-15T22:04:30.846Z,6.00
2023-08-15T22:08:28.878Z,7.00
2023-08-15T22:11:54.289Z,7.00
2023-08-15T22:15:31.940Z,8.10
2023-08-15T22:19:09.650Z,6.70
2023-08-15T22:22:51.445Z,7.20
2023-08-15T22:26:25.047Z,8.20
2023-08-15T22:30:03.059Z,8.10
2023-08-15T22:33:41.009Z,9.90
2023-08-15T22:37:18.076Z,6.60
2023-08-15T22:40:55.674Z,6.10
2023-08-15T22:44:36.383Z,4.90
2023-08-15T22:48:11.149Z,10.60
2023-08-15T22:51:48.714Z,16.10
2023-08-15T22:55:45.191Z,11.30
2023-08-15T22:59:10.760Z,11.60
2023-08-15T23:02:48.347Z,10.30
2023-08-15T23:06:26.444Z,12.90
2023-08-15T23:10:04.438Z,10.50
2023-08-15T23:13:41.563Z,11.00
2023-08-15T23:17:18.919Z,13.00
2023-08-15T23:20:59.589Z,8.90
2023-08-15T23:24:34.322Z,14.10
2023-08-15T23:28:12.270Z,8.40
2023-08-15T23:31:49.601Z,9.90
2023-08-15T23:35:27.313Z,8.10
2023-08-15T23:39:25.438Z,9.60
2023-08-15T23:42:50.429Z,7.70
2023-08-15T23:46:28.731Z,7.20
2023-08-15T23:50:06.391Z,8.60
2023-08-15T23:53:43.331Z,6.60
2023-08-15T23:57:21.693Z,6.80
